createdAt,value
2022-08-26T00:02:10.726Z,16.8
2022-08-26T00:07:18.245Z,16.84
2022-08-26T00:12:25.841Z,16.94
2022-08-26T00:17:33.744Z,16.85
2022-08-26T00:22:41.777Z,16.96
2022-08-26T00:27:50.484Z,16.86
2022-08-26T00:32:58.880Z,16.8
2022-08-26T00:38:05.671Z,16.7
2022-08-26T00:43:12.220Z,16.71
2022-08-26T00:48:19.569Z,16.83
2022-08-26T00:53:26.619Z,16.94
2022-08-26T00:58:34.391Z,16.82
2022-08-26T01:03:41.672Z,16.75
2022-08-26T01:08:48.886Z,16.7
2022-08-26T01:13:56.347Z,16.71
2022-08-26T01:19:03.674Z,16.69
2022-08-26T01:24:10.843Z,16.64
2022-08-26T01:29:18.643Z,16.66
2022-08-26T01:34:27.349Z,16.59
2022-08-26T01:39:34.627Z,16.61
2022-08-26T01:44:42.150Z,16.5
2022-08-26T01:49:49.679Z,16.52
2022-08-26T01:54:56.365Z,16.59
2022-08-26T02:00:03.418Z,16.61
2022-08-26T02:05:10.917Z,16.61
2022-08-26T02:10:17.825Z,16.59
2022-08-26T02:15:25.042Z,16.54
2022-08-26T02:20:32.600Z,16.49
2022-08-26T02:25:40.257Z,16.42
2022-08-26T02:30:48.531Z,16.39
2022-08-26T02:35:56.179Z,16.49
2022-08-26T02:41:03.138Z,16.29
2022-08-26T02:46:11.637Z,16.28
2022-08-26T02:51:19.323Z,16.33
2022-08-26T02:56:27.413Z,16.26
2022-08-26T03:01:34.295Z,16.4
2022-08-26T03:06:42.131Z,16.28
2022-08-26T03:11:49.733Z,16.26
2022-08-26T03:16:57.511Z,16.22
2022-08-26T03:22:04.368Z,16.17
2022-08-26T03:27:14.007Z,16.08
2022-08-26T03:32:22.485Z,16.07
2022-08-26T03:37:35.269Z,15.94
2022-08-26T03:42:42.152Z,16.06
2022-08-26T03:47:50.043Z,15.93
2022-08-26T03:52:57.497Z,15.92
2022-08-26T03:58:05.738Z,15.92
2022-08-26T04:03:12.839Z,16.04
2022-08-26T04:08:20.998Z,16.33
2022-08-26T04:13:29.169Z,16.3
2022-08-26T04:18:36.450Z,16.2
2022-08-26T04:23:42.937Z,16.15
2022-08-26T04:28:52.238Z,16.25
2022-08-26T04:34:05.802Z,16.56
2022-08-26T04:39:14.010Z,16.61
2022-08-26T04:44:21.416Z,16.65
2022-08-26T04:49:29.469Z,16.98
2022-08-26T04:54:37.049Z,18.06
2022-08-26T04:59:45.666Z,19.64
2022-08-26T05:04:52.706Z,21.62
2022-08-26T05:09:59.134Z,23.35
2022-08-26T05:15:07.098Z,24.82
2022-08-26T05:20:15.145Z,25.66
2022-08-26T05:25:23.945Z,27.8
2022-08-26T05:30:32.412Z,28.36
2022-08-26T05:35:39.769Z,28.71
2022-08-26T05:40:48.088Z,29.86
2022-08-26T05:45:55.395Z,28.76
2022-08-26T05:51:02.639Z,27.22
2022-08-26T05:56:09.484Z,24.48
2022-08-26T06:01:17.844Z,22.56
2022-08-26T06:06:24.244Z,21.98
2022-08-26T06:11:31.755Z,23.44
2022-08-26T06:16:40.480Z,26.42
2022-08-26T06:21:49.135Z,28.44
2022-08-26T06:26:58.094Z,29.67
2022-08-26T06:32:05.941Z,30.76
2022-08-26T06:37:14.660Z,31.28
2022-08-26T06:42:23.054Z,31.55
2022-08-26T06:47:30.813Z,32.01
2022-08-26T06:52:38.009Z,32.22
2022-08-26T06:57:46.328Z,33.44
2022-08-26T07:02:54.238Z,35.13
2022-08-26T07:08:01.784Z,35.28
2022-08-26T07:13:09.645Z,34.74
2022-08-26T07:18:17.521Z,33.76
2022-08-26T07:23:25.365Z,34.97
2022-08-26T07:28:32.310Z,35.89
2022-08-26T07:33:40.229Z,34.57
2022-08-26T07:38:47.116Z,33.74
2022-08-26T07:43:54.800Z,34.3
2022-08-26T07:49:02.481Z,34.39
2022-08-26T07:54:10.333Z,34.54
2022-08-26T07:59:18.620Z,36.19
2022-08-26T08:04:26.116Z,34.86
2022-08-26T08:09:33.659Z,36.04
2022-08-26T08:14:41.473Z,35.26
2022-08-26T08:19:48.711Z,35.36
2022-08-26T08:24:55.959Z,34.56
2022-08-26T08:30:04.243Z,34.26
2022-08-26T08:35:11.693Z,34.1
2022-08-26T08:40:19.691Z,34.26
2022-08-26T08:45:27.290Z,35.76
2022-08-26T08:50:35.189Z,36.8
2022-08-26T08:55:42.318Z,36.27
2022-08-26T09:00:50.124Z,35.81
2022-08-26T09:05:57.469Z,35.6
2022-08-26T09:11:04.542Z,36.42
2022-08-26T09:16:12.379Z,35.65
2022-08-26T09:21:19.963Z,34.88
2022-08-26T09:26:26.774Z,35.03
2022-08-26T09:31:34.574Z,34.25
2022-08-26T09:36:42.256Z,34.11
2022-08-26T09:41:50.807Z,34.07
2022-08-26T09:46:58.568Z,33.65
2022-08-26T09:52:05.964Z,34.06
2022-08-26T09:57:14.656Z,33.75
2022-08-26T10:02:22.059Z,33.79
2022-08-26T10:07:30.133Z,33.54
2022-08-26T10:12:37.337Z,33.54
2022-08-26T10:17:45.683Z,32.65
2022-08-26T10:22:52.592Z,32.53
2022-08-26T10:28:01.171Z,32.47
2022-08-26T10:33:08.049Z,31.3
2022-08-26T10:38:15.930Z,31.1
2022-08-26T10:43:24.108Z,30.96
2022-08-26T10:48:31.708Z,31.22
2022-08-26T10:53:39.402Z,31.47
2022-08-26T10:58:46.172Z,29.94
2022-08-26T11:03:53.177Z,31.8
2022-08-26T11:09:01.019Z,32.64
2022-08-26T11:14:08.974Z,33.79
2022-08-26T11:19:17.201Z,33.99
2022-08-26T11:24:25.634Z,31.94
2022-08-26T11:29:33.008Z,30.33
2022-08-26T11:34:40.254Z,29.81
2022-08-26T11:39:49.275Z,29.76
2022-08-26T11:44:57.381Z,31.16
2022-08-26T11:50:05.232Z,31.3
2022-08-26T11:55:13.483Z,30.86
2022-08-26T12:00:20.785Z,30.74
2022-08-26T12:05:28.573Z,31.36
2022-08-26T12:10:36.399Z,31.68
2022-08-26T12:15:44.288Z,30.99
2022-08-26T12:20:51.365Z,30.47
2022-08-26T12:25:59.261Z,30.58
2022-08-26T12:31:07.826Z,30.68
2022-08-26T12:36:16.402Z,31.6
2022-08-26T12:41:24.176Z,32.13
2022-08-26T12:46:37.665Z,32.65
2022-08-26T12:51:44.225Z,32.32
2022-08-26T12:56:51.420Z,31.68
2022-08-26T13:01:59.266Z,31.6
2022-08-26T13:07:06.713Z,31.81
2022-08-26T13:12:13.702Z,31.94
2022-08-26T13:17:21.446Z,32.2
2022-08-26T13:22:29.669Z,32.34
2022-08-26T13:27:37.180Z,32.22
2022-08-26T13:32:44.546Z,32.21
2022-08-26T13:37:52.177Z,32.24
2022-08-26T13:43:00.317Z,32.0
2022-08-26T13:48:09.388Z,31.7
2022-08-26T13:53:16.317Z,31.42
2022-08-26T13:58:22.935Z,30.96
2022-08-26T14:03:30.400Z,30.8
2022-08-26T14:08:39.059Z,30.8
2022-08-26T14:13:46.199Z,30.88
2022-08-26T14:18:53.709Z,31.17
2022-08-26T14:25:32.975Z,31.28
2022-08-26T14:30:38.935Z,31.55
2022-08-26T14:35:45.501Z,31.6
2022-08-26T14:40:52.661Z,31.66
2022-08-26T14:46:00.505Z,31.62
2022-08-26T14:51:07.597Z,31.15
2022-08-26T14:56:16.594Z,31.36
2022-08-26T15:01:24.766Z,32.29
2022-08-26T15:06:32.247Z,32.9
2022-08-26T15:11:39.789Z,33.11
2022-08-26T15:16:47.450Z,33.26
2022-08-26T15:21:54.168Z,33.17
2022-08-26T15:27:01.374Z,32.88
2022-08-26T15:32:12.359Z,33.32
2022-08-26T15:37:20.217Z,33.64
2022-08-26T15:42:26.134Z,33.34
2022-08-26T15:47:32.700Z,32.35
2022-08-26T15:52:39.851Z,31.16
2022-08-26T15:57:46.637Z,30.86
2022-08-26T16:02:54.168Z,29.74
2022-08-26T16:08:01.066Z,28.8
2022-08-26T16:13:08.433Z,27.97
2022-08-26T16:18:14.892Z,28.28
2022-08-26T16:23:21.827Z,28.62
2022-08-26T16:28:29.331Z,28.83
2022-08-26T16:33:37.502Z,28.4
2022-08-26T16:38:44.634Z,27.86
2022-08-26T16:43:52.480Z,27.22
2022-08-26T16:48:59.401Z,26.26
2022-08-26T16:54:06.036Z,25.68
2022-08-26T16:59:14.304Z,25.44
2022-08-26T17:04:21.712Z,25.04
2022-08-26T17:09:29.824Z,24.72
2022-08-26T17:14:38.171Z,24.66
2022-08-26T17:19:46.011Z,24.51
2022-08-26T17:24:53.876Z,24.28
2022-08-26T17:30:00.542Z,23.88
2022-08-26T17:35:07.744Z,23.62
2022-08-26T17:40:15.354Z,23.52
2022-08-26T17:45:22.821Z,23.3
2022-08-26T17:50:30.671Z,22.92
2022-08-26T17:55:39.088Z,22.7
2022-08-26T18:00:47.024Z,22.56
2022-08-26T18:05:54.008Z,22.56
2022-08-26T18:11:00.249Z,22.48
2022-08-26T18:16:07.260Z,22.35
2022-08-26T18:21:14.462Z,22.51
2022-08-26T18:26:21.657Z,22.71
2022-08-26T18:31:29.822Z,22.61
2022-08-26T18:36:37.424Z,22.31
2022-08-26T18:41:45.294Z,22.25
2022-08-26T18:46:53.052Z,22.52
2022-08-26T18:52:04.111Z,22.57
2022-08-26T18:57:17.049Z,22.68
2022-08-26T19:02:23.580Z,22.7
2022-08-26T19:07:30.202Z,22.56
2022-08-26T19:12:37.340Z,22.49
2022-08-26T19:17:44.536Z,22.32
2022-08-26T19:23:06.730Z,22.24
2022-08-26T19:28:15.297Z,22.1
2022-08-26T19:33:23.046Z,21.99
2022-08-26T19:38:30.291Z,21.78
2022-08-26T19:43:44.729Z,21.62
2022-08-26T19:48:50.778Z,21.54
2022-08-26T19:53:58.618Z,21.4
2022-08-26T19:59:05.179Z,21.22
2022-08-26T20:04:12.955Z,21.24
2022-08-26T20:09:20.380Z,21.2
2022-08-26T20:14:28.062Z,21.1
2022-08-26T20:19:35.257Z,21.14
2022-08-26T20:24:42.459Z,21.1
2022-08-26T20:29:50.809Z,21.17
2022-08-26T20:34:58.894Z,21.5
2022-08-26T20:40:08.332Z,21.72
2022-08-26T20:45:15.306Z,21.76
2022-08-26T20:50:22.300Z,22.25
2022-08-26T20:55:29.633Z,22.52
2022-08-26T21:00:38.037Z,20.73
2022-08-26T21:05:43.881Z,19.33
2022-08-26T21:10:49.851Z,18.78
2022-08-26T21:15:58.807Z,18.39
2022-08-26T21:21:06.005Z,18.01
2022-08-26T21:26:13.343Z,17.9
2022-08-26T21:31:20.840Z,17.8
2022-08-26T21:36:28.372Z,17.88
2022-08-26T21:41:37.296Z,18.08
2022-08-26T21:46:45.036Z,18.24
2022-08-26T21:51:52.407Z,18.2
2022-08-26T21:56:59.932Z,18.26
2022-08-26T22:03:38.499Z,18.42
2022-08-26T22:08:45.019Z,18.48
2022-08-26T22:13:52.217Z,18.46
2022-08-26T22:18:59.479Z,18.46
2022-08-26T22:24:06.948Z,18.54
2022-08-26T22:29:15.721Z,18.57
2022-08-26T22:34:22.642Z,18.59
2022-08-26T22:39:30.173Z,18.6
2022-08-26T22:44:38.277Z,18.64
2022-08-26T22:49:45.817Z,18.65
2022-08-26T22:54:53.980Z,18.69
2022-08-26T23:00:02.017Z,18.67
2022-08-26T23:05:09.336Z,18.65
2022-08-26T23:10:16.563Z,18.65
2022-08-26T23:15:23.738Z,18.71
2022-08-26T23:20:32.531Z,18.73
2022-08-26T23:25:41.071Z,18.74
2022-08-26T23:30:49.344Z,18.76
2022-08-26T23:35:57.616Z,18.8
2022-08-26T23:41:04.860Z,18.84
2022-08-26T23:46:12.712Z,18.84
2022-08-26T23:51:20.602Z,18.8
2022-08-26T23:56:28.414Z,18.78
